KHBG/HBG METAR and TAF weather

Enter ICAO airport designator
Station Type Date Time Source
KHBG METAR 2020/07/02 18:53 UTC NOAA

KHBG 021853Z AUTO 02005KT 7SM RA FEW080 OVC100 23/21 A3005 RMK AO2 LTG DSNT ALQDS TSE00 SLP174 P0013 T02280206


Station Type Date Time Source
KHBG Decoded METAR 2020/07/02 18:53 UTC NOAA

HATTIESBURG CHAIN MUNICIPAL, MS, United States (KHBG) 31-16N 89-15W 44M
Jul 02, 2020 - 02:53 PM EDT / 2020.07.02 1853 UTC
Wind: from the NNE (020 degrees) at 6 MPH (5 KT):0
Visibility: 7 mile(s):0
Sky conditions: overcast
Weather: rain; Lightning observed
Precipitation last hour: 0.13 inches
Temperature: 73.0 F (22.8 C)
Dew Point: 69.1 F (20.6 C)
Relative Humidity: 87%
Pressure (altimeter): 30.05 in. Hg (1017 hPa)
ob: KHBG 021853Z AUTO 02005KT 7SM RA FEW080 OVC100 23/21 A3005 RMK AO2 LTG DSNT ALQDS TSE00 SLP174 P0013 T02280206
cycle: 19

Station Type Date Time Source
KHBG TAF 2020/07/02 18:39 UTC NOAA

TAF KHBG 021737Z 0218/0318 35005KT P6SM VCSH SCT021 SCT040 BKN080
FM021900 30006KT P6SM VCTS BKN035 BKN050CB
FM030200 00000KT P6SM SCT050 BKN100
FM031500 31004KT P6SM SCT250

Example: see airport list